Time;durP1;ratioP1;P1;durP2;ratioP2;P2;SDS_P1;SDS_P2;PMS_P1;PMS_P2;Temp;Humidity;BMP_temperature;BMP_pressure;BME280_temperature;BME280_humidity;BME280_pressure;Samples;Min_cycle;Max_cycle;Signal;HPM_P1;HPM_P2
2023/07/01 00:01:01;;;;;;;54.50;13.97;;;13.50;91.60;;;;;;5125598;27;20464;-60
2023/07/01 00:03:30;;;;;;;41.23;10.97;;;13.50;91.60;;;;;;5124415;27;20719;-60
2023/07/01 00:05:58;;;;;;;54.53;13.73;;;13.50;91.40;;;;;;5123830;27;20471;-61
2023/07/01 00:08:25;;;;;;;37.00;10.03;;;13.60;91.40;;;;;;5126061;27;20468;-60
2023/07/01 00:10:52;;;;;;;45.90;11.90;;;;;;;;;;5124622;27;21124;-61
2023/07/01 00:13:20;;;;;;;35.97;10.13;;;;;;;;;;5125332;27;20855;-60
2023/07/01 00:15:47;;;;;;;21.50;7.30;;;13.50;91.80;;;;;;5123322;27;20483;-61
2023/07/01 00:18:14;;;;;;;32.27;9.97;;;;;;;;;;5128282;27;20472;-60
2023/07/01 00:20:42;;;;;;;23.57;7.93;;;13.40;91.60;;;;;;5128941;27;20472;-60
2023/07/01 00:23:09;;;;;;;36.13;9.07;;;;;;;;;;5127999;27;20509;-60
2023/07/01 00:25:36;;;;;;;33.30;9.67;;;13.50;91.60;;;;;;5130321;27;21630;-60
2023/07/01 00:28:03;;;;;;;51.43;12.50;;;;;;;;;;5124824;27;20471;-60
2023/07/01 00:30:30;;;;;;;41.13;10.60;;;13.50;91.70;;;;;;5129665;27;20993;-60
2023/07/01 00:32:57;;;;;;;52.43;13.63;;;;;;;;;;5125516;27;20559;-60
2023/07/01 00:35:24;;;;;;;38.60;11.17;;;;;;;;;;5130047;27;20478;-60
2023/07/01 00:37:52;;;;;;;40.10;10.10;;;13.50;91.50;;;;;;5128362;27;20813;-60
2023/07/01 00:40:20;;;;;;;40.73;11.43;;;;;;;;;;5095902;27;21029;-61
2023/07/01 00:42:47;;;;;;;33.10;9.83;;;;;;;;;;5124267;27;21171;-60
2023/07/01 00:45:14;;;;;;;30.83;9.87;;;;;;;;;;5131083;27;20499;-60
2023/07/01 00:47:41;;;;;;;28.20;9.00;;;13.40;91.30;;;;;;5124658;27;21069;-60
2023/07/01 00:50:12;;;;;;;29.50;8.77;;;13.40;91.50;;;;;;5127610;27;20934;-60
2023/07/01 00:52:39;;;;;;;30.33;9.20;;;13.40;91.50;;;;;;5124245;27;20474;-60
2023/07/01 00:55:09;;;;;;;41.73;10.80;;;13.30;91.90;;;;;;5128456;27;20496;-60
2023/07/01 00:57:37;;;;;;;29.80;9.40;;;13.20;91.80;;;;;;5122599;27;20483;-60
2023/07/01 01:00:08;;;;;;;47.30;11.93;;;13.20;91.80;;;;;;5126256;27;20504;-60
2023/07/01 01:02:45;;;;;;;27.83;8.40;;;13.20;91.90;;;;;;5121107;27;20508;-59
2023/07/01 01:05:17;;;;;;;39.60;9.73;;;13.10;91.80;;;;;;5125836;27;20830;-60
2023/07/01 01:07:50;;;;;;;35.43;10.27;;;13.00;92.00;;;;;;5123437;27;20619;-60
2023/07/01 01:10:22;;;;;;;27.80;8.50;;;12.90;92.20;;;;;;5121355;27;20551;-60
2023/07/01 01:12:51;;;;;;;42.13;11.97;;;12.80;92.70;;;;;;5093220;27;20469;-60
2023/07/01 01:15:19;;;;;;;43.40;12.33;;;12.50;93.30;;;;;;5124216;27;20466;-61
2023/07/01 01:17:46;;;;;;;27.13;7.87;;;12.50;93.60;;;;;;5121014;27;20481;-60
2023/07/01 01:20:16;;;;;;;25.40;8.37;;;12.60;93.60;;;;;;5108379;27;20470;-60
2023/07/01 01:22:47;;;;;;;24.17;8.37;;;12.70;93.40;;;;;;5116173;27;21455;-60
2023/07/01 01:25:21;;;;;;;21.20;7.23;;;12.80;93.10;;;;;;5115176;27;20474;-59
2023/07/01 01:27:49;;;;;;;25.37;8.60;;;12.90;93.30;;;;;;5114794;27;20554;-60
2023/07/01 01:30:16;;;;;;;32.50;10.60;;;12.90;93.20;;;;;;5114349;27;20471;-59
2023/07/01 01:32:43;;;;;;;22.47;7.70;;;;;;;;;;5116386;27;20978;-60
2023/07/01 01:35:11;;;;;;;24.93;7.73;;;;;;;;;;5112999;27;20473;-60
2023/07/01 01:37:42;;;;;;;27.27;8.20;;;13.00;92.90;;;;;;5116318;27;20932;-60
2023/07/01 01:40:16;;;;;;;31.40;10.27;;;13.10;92.80;;;;;;5113079;27;20498;-60
2023/07/01 01:42:45;;;;;;;17.90;6.40;;;13.00;92.80;;;;;;5113157;27;20486;-60
2023/07/01 01:45:16;;;;;;;31.83;9.10;;;12.80;93.10;;;;;;5112705;27;20501;-60
2023/07/01 01:47:43;;;;;;;20.97;7.97;;;12.70;93.40;;;;;;5114708;27;20479;-60
2023/07/01 01:50:12;;;;;;;29.77;9.50;;;12.60;93.40;;;;;;5117248;27;20486;-60
2023/07/01 01:52:41;;;;;;;24.80;7.30;;;12.70;93.30;;;;;;5116846;27;20483;-60
2023/07/01 01:55:10;;;;;;;27.50;8.80;;;12.80;93.10;;;;;;5115115;27;20479;-61
2023/07/01 01:57:37;;;;;;;31.10;9.17;;;12.90;93.20;;;;;;5115500;27;20477;-60
2023/07/01 02:00:08;;;;;;;44.37;11.80;;;13.00;93.00;;;;;;5129532;27;20481;-60
2023/07/01 02:02:36;;;;;;;32.17;9.53;;;13.10;92.80;;;;;;5116700;27;20832;-60
2023/07/01 02:05:03;;;;;;;51.07;12.70;;;;;;;;;;5114347;27;20473;-60
2023/07/01 02:07:30;;;;;;;26.53;9.30;;;13.00;92.90;;;;;;5116686;27;20473;-60
2023/07/01 02:09:57;;;;;;;50.13;13.73;;;;;;;;;;5111393;27;20559;-59
2023/07/01 02:12:25;;;;;;;45.63;8.77;;;12.90;92.90;;;;;;5112554;27;20475;-60
2023/07/01 02:14:52;;;;;;;31.13;10.20;;;;;;;;;;5085876;27;20516;-60
2023/07/01 02:17:19;;;;;;;25.23;8.43;;;;;;;;;;5117139;27;20497;-60
2023/07/01 02:19:48;;;;;;;19.50;7.73;;;12.70;92.90;;;;;;5122597;27;20846;-60
2023/07/01 02:22:15;;;;;;;27.30;9.17;;;;;;;;;;5121288;27;20986;-59
2023/07/01 02:24:42;;;;;;;30.63;8.50;;;;;;;;;;5118901;27;20477;-60
2023/07/01 02:27:09;;;;;;;25.70;8.13;;;;;;;;;;5102912;27;20475;-60
2023/07/01 02:29:36;;;;;;;29.20;9.40;;;12.90;93.10;;;;;;5105346;27;20559;-60
2023/07/01 02:32:03;;;;;;;46.17;12.17;;;;;;;;;;5094242;27;20483;-60
2023/07/01 02:34:30;;;;;;;47.30;10.00;;;;;;;;;;5113963;27;20805;-60
2023/07/01 02:36:58;;;;;;;43.77;13.03;;;12.60;94.30;;;;;;5113704;27;20468;-60
2023/07/01 02:39:25;;;;;;;29.50;9.63;;;12.60;94.30;;;;;;5114897;27;20498;-61
2023/07/01 02:41:52;;;;;;;37.67;10.43;;;12.60;94.20;;;;;;5086158;28;20490;-60
2023/07/01 02:44:19;;;;;;;34.20;9.90;;;;;;;;;;5115516;27;20483;-60
2023/07/01 02:46:46;;;;;;;28.97;9.17;;;;;;;;;;5111707;27;20979;-62
2023/07/01 02:49:13;;;;;;;27.80;8.73;;;;;;;;;;5113771;27;20835;-60
2023/07/01 02:51:41;;;;;;;26.23;9.23;;;13.00;94.30;;;;;;5114285;27;20494;-59
2023/07/01 02:54:09;;;;;;;28.07;8.67;;;13.00;94.80;;;;;;5115282;27;20494;-59
2023/07/01 02:56:36;;;;;;;33.47;10.20;;;;;;;;;;5114418;27;20470;-60
2023/07/01 02:59:04;;;;;;;46.43;12.10;;;;;;;;;;5114152;27;20477;-60
2023/07/01 03:01:31;;;;;;;30.23;9.20;;;;;;;;;;5117607;27;20895;-59
2023/07/01 03:03:58;;;;;;;37.70;11.03;;;;;;;;;;5118091;27;20468;-60
2023/07/01 03:06:26;;;;;;;39.80;11.60;;;;;;;;;;5119139;27;20471;-61
2023/07/01 03:08:53;;;;;;;59.30;15.60;;;;;;;;;;5113613;27;21078;-61
2023/07/01 03:11:21;;;;;;;36.60;10.97;;;13.30;95.70;;;;;;5114660;27;20479;-60
2023/07/01 03:13:48;;;;;;;24.63;9.27;;;;;;;;;;5105389;27;20771;-60
2023/07/01 03:16:15;;;;;;;30.40;9.90;;;;;;;;;;5107491;27;20478;-60
2023/07/01 03:18:42;;;;;;;26.10;8.50;;;;;;;;;;5118037;27;20859;-60
2023/07/01 03:21:09;;;;;;;25.27;8.70;;;;;;;;;;5117329;27;21140;-60
2023/07/01 03:23:36;;;;;;;31.93;9.83;;;;;;;;;;5117630;27;20472;-60
2023/07/01 03:26:03;;;;;;;41.80;12.63;;;;;;;;;;5118205;27;20478;-60
2023/07/01 03:28:32;;;;;;;39.73;10.77;;;13.60;96.10;;;;;;5117550;27;20839;-59
2023/07/01 03:30:58;;;;;;;47.90;12.50;;;13.80;96.30;;;;;;5118608;27;20483;-60
2023/07/01 03:33:25;;;;;;;26.70;8.33;;;;;;;;;;5118706;27;20490;-59
2023/07/01 03:35:53;;;;;;;50.33;13.80;;;13.90;96.10;;;;;;5116921;27;20828;-60
2023/07/01 03:38:20;;;;;;;33.47;9.93;;;;;;;;;;5118704;27;20597;-60
2023/07/01 03:40:50;;;;;;;26.40;8.70;;;;;;;;;;5106265;27;20983;-60
2023/07/01 03:43:17;;;;;;;24.80;8.50;;;;;;;;;;5103967;27;20586;-60
2023/07/01 03:45:45;;;;;;;32.73;11.03;;;15.10;96.70;;;;;;5112240;27;21053;-61
2023/07/01 03:48:12;;;;;;;36.37;9.93;;;;;;;;;;5116570;27;20470;-61
2023/07/01 03:50:40;;;;;;;27.43;9.33;;;;;;;;;;5118503;27;20852;-60
2023/07/01 03:53:07;;;;;;;35.00;10.80;;;14.40;96.20;;;;;;5118058;27;20481;-61
2023/07/01 03:55:34;;;;;;;35.00;10.73;;;14.40;96.10;;;;;;5118798;27;20468;-60
2023/07/01 03:58:01;;;;;;;61.53;16.40;;;;;;;;;;5116850;27;20475;-60
2023/07/01 04:00:28;;;;;;;27.33;8.73;;;14.60;96.00;;;;;;5117350;27;20803;-61
2023/07/01 04:02:57;;;;;;;38.33;10.90;;;14.60;95.90;;;;;;5116474;27;20874;-61
2023/07/01 04:05:24;;;;;;;41.93;12.63;;;;;;;;;;5113449;27;20528;-60
2023/07/01 04:07:51;;;;;;;33.33;11.40;;;;;;;;;;5115035;27;20481;-61
2023/07/01 04:10:18;;;;;;;30.50;10.10;;;;;;;;;;5117494;27;20588;-61
2023/07/01 04:12:45;;;;;;;23.70;7.57;;;;;;;;;;5114984;27;20490;-60
2023/07/01 04:15:13;;;;;;;41.70;12.03;;;;;;;;;;5115710;27;20942;-60
2023/07/01 04:17:43;;;;;;;30.07;10.73;;;14.90;95.40;;;;;;5113479;27;20831;-60
2023/07/01 04:20:13;;;;;;;23.37;8.07;;;15.00;95.50;;;;;;5114381;27;20491;-60
2023/07/01 04:22:40;;;;;;;35.77;9.60;;;15.00;95.30;;;;;;5102476;27;20597;-60
2023/07/01 04:25:07;;;;;;;32.13;10.43;;;15.00;95.10;;;;;;5106786;27;20983;-60
2023/07/01 04:27:35;;;;;;;24.03;8.90;;;15.10;95.30;;;;;;5117061;27;20834;-60
2023/07/01 04:30:02;;;;;;;45.77;11.43;;;15.20;95.10;;;;;;5104484;27;21049;-60
2023/07/01 04:32:29;;;;;;;30.83;9.67;;;;;;;;;;5081187;27;20969;-61
2023/07/01 04:34:56;;;;;;;46.17;12.83;;;;;;;;;;5103713;27;20482;-61
2023/07/01 04:37:25;;;;;;;28.40;9.20;;;15.40;95.00;;;;;;5112070;27;20971;-60
2023/07/01 04:39:52;;;;;;;47.07;13.30;;;;;;;;;;5115029;27;20476;-61
2023/07/01 04:42:19;;;;;;;25.93;9.03;;;;;;;;;;5095143;27;21146;-61
2023/07/01 04:44:53;;;;;;;19.67;7.27;;;15.40;95.30;;;;;;5108403;27;20484;-61
2023/07/01 04:47:20;;;;;;;32.60;8.97;;;;;;;;;;5116765;27;20465;-60
2023/07/01 04:49:47;;;;;;;24.17;8.57;;;15.40;94.90;;;;;;5117011;27;20524;-60
2023/07/01 04:52:15;;;;;;;21.57;8.53;;;;;;;;;;5116179;27;20472;-61
2023/07/01 04:54:43;;;;;;;24.13;9.13;;;15.50;94.80;;;;;;5117765;27;20503;-60
2023/07/01 04:57:10;;;;;;;32.80;9.30;;;15.60;94.70;;;;;;5116131;27;20484;-60
2023/07/01 04:59:36;;;;;;;25.40;9.30;;;15.50;94.50;;;;;;5116426;27;20542;-61
2023/07/01 05:02:04;;;;;;;40.33;12.60;;;15.60;94.50;;;;;;5113872;27;20473;-60
2023/07/01 05:04:30;;;;;;;24.47;9.03;;;15.70;94.60;;;;;;5114066;27;20476;-60
2023/07/01 05:06:58;;;;;;;54.20;14.73;;;;;;;;;;5115721;27;20480;-60
2023/07/01 05:09:24;;;;;;;30.43;9.27;;;15.70;94.60;;;;;;5116227;27;20495;-61
2023/07/01 05:11:52;;;;;;;29.60;9.97;;;15.70;94.50;;;;;;5113894;27;21219;-60
2023/07/01 05:14:19;;;;;;;33.90;10.37;;;15.80;94.80;;;;;;5115878;27;20480;-60
2023/07/01 05:16:46;;;;;;;20.23;7.23;;;;;;;;;;5094335;27;20483;-60
2023/07/01 05:19:13;;;;;;;26.07;8.43;;;15.80;94.50;;;;;;5108890;27;20951;-60
2023/07/01 05:21:49;;;;;;;17.17;7.40;;;15.90;94.60;;;;;;5115655;27;21074;-60
2023/07/01 05:24:16;;;;;;;35.60;10.90;;;15.90;94.60;;;;;;5115678;27;20482;-61
2023/07/01 05:26:45;;;;;;;28.23;8.10;;;15.90;94.40;;;;;;5116185;27;20973;-60
2023/07/01 05:29:14;;;;;;;23.17;8.57;;;15.90;94.40;;;;;;5086172;27;20476;-60
2023/07/01 05:31:40;;;;;;;27.17;9.53;;;15.80;94.80;;;;;;5115508;27;20476;-60
2023/07/01 05:34:08;;;;;;;37.97;10.10;;;;;;;;;;5115691;27;20472;-61
2023/07/01 05:36:36;;;;;;;24.30;7.70;;;15.90;94.20;;;;;;5116509;27;20836;-60
2023/07/01 05:39:03;;;;;;;48.37;12.37;;;16.00;94.40;;;;;;5114334;27;20494;-60
2023/07/01 05:41:31;;;;;;;24.37;8.00;;;;;;;;;;5114135;27;20521;-60
2023/07/01 05:43:58;;;;;;;57.80;15.17;;;;;;;;;;5115276;27;20950;-60
2023/07/01 05:46:26;;;;;;;25.07;9.30;;;16.20;94.50;;;;;;5116286;27;20475;-60
2023/07/01 05:48:53;;;;;;;42.33;11.50;;;16.20;94.40;;;;;;5114597;27;20853;-60
2023/07/01 05:51:20;;;;;;;22.60;7.67;;;16.30;94.00;;;;;;5113851;27;20483;-60
2023/07/01 05:53:47;;;;;;;26.37;9.13;;;;;;;;;;5114220;27;20972;-60
2023/07/01 05:56:14;;;;;;;30.03;8.73;;;16.40;94.20;;;;;;5116007;27;20825;-60
2023/07/01 05:58:41;;;;;;;25.93;8.90;;;16.50;94.00;;;;;;5115093;27;20492;-60
2023/07/01 06:01:08;;;;;;;34.87;10.63;;;16.60;94.00;;;;;;5113682;27;20952;-60
2023/07/01 06:03:36;;;;;;;28.63;8.17;;;16.80;94.00;;;;;;5115958;27;20863;-61
2023/07/01 06:06:04;;;;;;;43.33;12.53;;;16.90;93.80;;;;;;5086772;27;20475;-61
2023/07/01 06:08:30;;;;;;;31.17;9.80;;;17.00;93.60;;;;;;5115007;27;20621;-60
2023/07/01 06:10:57;;;;;;;31.53;9.70;;;17.10;93.60;;;;;;5110991;27;20468;-61
2023/07/01 06:13:24;;;;;;;15.33;7.00;;;17.20;93.20;;;;;;5115121;27;20476;-60
2023/07/01 06:15:51;;;;;;;30.87;10.97;;;;;;;;;;5112886;27;20831;-60
2023/07/01 06:18:18;;;;;;;25.53;8.23;;;;;;;;;;5097418;27;20804;-60
2023/07/01 06:20:46;;;;;;;20.13;7.70;;;17.50;92.60;;;;;;5102690;27;20487;-60
2023/07/01 06:23:13;;;;;;;23.00;7.53;;;17.60;92.70;;;;;;5114329;27;21003;-60
2023/07/01 06:25:41;;;;;;;25.33;7.80;;;17.60;92.70;;;;;;5112701;27;20485;-60
2023/07/01 06:28:08;;;;;;;23.20;8.00;;;17.80;92.90;;;;;;5112197;27;20467;-60
2023/07/01 06:30:35;;;;;;;31.67;10.17;;;17.80;92.60;;;;;;5114544;27;20472;-61
2023/07/01 06:33:02;;;;;;;29.53;9.77;;;17.90;92.40;;;;;;5114865;27;20984;-61
2023/07/01 06:35:28;;;;;;;25.60;8.70;;;17.90;92.30;;;;;;5113712;27;20847;-60
2023/07/01 06:37:57;;;;;;;28.57;9.80;;;;;;;;;;5113341;27;20485;-61
2023/07/01 06:40:24;;;;;;;34.50;10.30;;;18.10;92.30;;;;;;5113673;27;20475;-60
2023/07/01 06:42:51;;;;;;;30.23;10.47;;;18.20;92.40;;;;;;5113834;27;20484;-60
2023/07/01 06:45:18;;;;;;;20.87;7.33;;;;;;;;;;5114912;27;20980;-60
2023/07/01 06:47:45;;;;;;;17.70;7.10;;;18.40;92.50;;;;;;5113967;27;20485;-61
2023/07/01 06:50:12;;;;;;;26.40;9.67;;;18.40;92.30;;;;;;5113614;27;20470;-61
2023/07/01 06:52:39;;;;;;;19.77;7.10;;;;;;;;;;5098264;27;20492;-61
2023/07/01 06:55:08;;;;;;;24.77;8.33;;;18.50;91.70;;;;;;5100168;28;20478;-61
2023/07/01 06:57:35;;;;;;;22.63;8.13;;;18.60;91.90;;;;;;5115730;27;20481;-62
2023/07/01 07:00:03;;;;;;;38.13;11.83;;;18.50;91.60;;;;;;5110819;27;20884;-61
2023/07/01 07:02:30;;;;;;;24.50;10.00;;;18.50;91.80;;;;;;5102106;27;20480;-61
2023/07/01 07:04:56;;;;;;;41.77;13.30;;;18.50;91.80;;;;;;5099784;27;20491;-61
2023/07/01 07:07:23;;;;;;;21.63;9.17;;;18.50;91.60;;;;;;5115507;27;20472;-61
2023/07/01 07:09:50;;;;;;;28.60;10.57;;;18.50;91.70;;;;;;5114227;27;20488;-61
2023/07/01 07:12:18;;;;;;;24.77;9.37;;;18.50;91.80;;;;;;5123974;27;20479;-60
2023/07/01 07:14:45;;;;;;;28.90;8.00;;;18.70;92.20;;;;;;5088414;27;20481;-61
2023/07/01 07:17:12;;;;;;;26.37;10.37;;;18.70;91.90;;;;;;5115616;27;20484;-60
2023/07/01 07:19:39;;;;;;;23.30;9.63;;;18.70;91.70;;;;;;5123040;27;20477;-60
2023/07/01 07:22:06;;;;;;;22.53;8.30;;;18.90;92.30;;;;;;5114679;27;20693;-60
2023/07/01 07:24:33;;;;;;;26.00;8.80;;;18.90;91.60;;;;;;5114619;27;20974;-60
2023/07/01 07:27:02;;;;;;;36.63;11.90;;;19.00;91.60;;;;;;5111910;27;20767;-62
2023/07/01 07:29:33;;;;;;;20.73;8.20;;;19.10;92.00;;;;;;5112011;27;20477;-61
2023/07/01 07:32:02;;;;;;;44.83;13.77;;;19.10;91.70;;;;;;5109311;27;20478;-61
2023/07/01 07:34:29;;;;;;;34.63;11.50;;;19.10;91.40;;;;;;5113856;27;20526;-61
2023/07/01 07:36:57;;;;;;;34.93;10.87;;;19.20;91.90;;;;;;5099901;27;20480;-61
2023/07/01 07:39:24;;;;;;;22.50;9.00;;;19.20;91.50;;;;;;5102502;27;20476;-60
2023/07/01 07:41:51;;;;;;;37.40;11.57;;;19.10;91.10;;;;;;5116800;27;21261;-62
2023/07/01 07:44:18;;;;;;;28.27;8.07;;;19.10;91.60;;;;;;5117380;27;20498;-60
2023/07/01 07:46:46;;;;;;;12.87;6.40;;;19.10;91.60;;;;;;5115518;27;20475;-61
2023/07/01 07:49:13;;;;;;;17.60;6.47;;;19.10;91.70;;;;;;5118171;27;20824;-61
2023/07/01 07:51:40;;;;;;;18.20;5.77;;;18.90;91.40;;;;;;5114835;27;20485;-61
2023/07/01 07:54:07;;;;;;;26.57;9.23;;;18.90;91.50;;;;;;5116686;27;20483;-61
2023/07/01 07:56:34;;;;;;;27.87;9.63;;;18.90;91.80;;;;;;5117783;27;20882;-61
2023/07/01 07:59:01;;;;;;;34.60;10.70;;;18.90;91.70;;;;;;5089574;27;20480;-61
2023/07/01 08:01:27;;;;;;;27.50;9.67;;;19.00;92.40;;;;;;5117571;27;20480;-61
2023/07/01 08:03:55;;;;;;;54.37;13.60;;;19.10;92.40;;;;;;5113876;27;20486;-61
2023/07/01 08:06:22;;;;;;;27.37;7.73;;;19.40;92.30;;;;;;5118608;27;20478;-61
2023/07/01 08:08:49;;;;;;;20.67;7.10;;;19.40;91.90;;;;;;5117745;27;20485;-61
2023/07/01 08:11:16;;;;;;;20.77;7.30;;;;;;;;;;5117685;27;20988;-59
2023/07/01 08:13:43;;;;;;;19.47;6.80;;;19.20;92.10;;;;;;5118330;27;20478;-60
2023/07/01 08:16:12;;;;;;;30.13;9.03;;;19.10;92.00;;;;;;5088333;27;20480;-61
2023/07/01 08:18:40;;;;;;;19.73;7.30;;;19.10;91.80;;;;;;5086874;27;20469;-61
2023/07/01 08:21:08;;;;;;;28.40;8.87;;;19.10;92.20;;;;;;5116031;27;20818;-61
2023/07/01 08:23:35;;;;;;;20.80;7.70;;;19.10;91.90;;;;;;5117406;27;21131;-60
2023/07/01 08:26:01;;;;;;;37.13;11.73;;;19.20;92.10;;;;;;5117059;27;20478;-61
2023/07/01 08:28:31;;;;;;;16.87;6.07;;;19.20;92.40;;;;;;5114928;27;20476;-60
2023/07/01 08:30:58;;;;;;;42.27;11.87;;;19.20;92.40;;;;;;5116981;27;20768;-61
2023/07/01 08:33:26;;;;;;;25.47;7.93;;;19.10;92.00;;;;;;5114986;27;20476;-60
2023/07/01 08:35:52;;;;;;;48.40;13.00;;;19.00;92.30;;;;;;5115738;27;20483;-60
2023/07/01 08:38:21;;;;;;;28.37;7.87;;;18.90;92.40;;;;;;5116009;27;20470;-60
2023/07/01 08:40:50;;;;;;;25.03;8.27;;;;;;;;;;5115172;27;20472;-60
2023/07/01 08:43:17;;;;;;;19.57;6.97;;;19.00;92.40;;;;;;5117665;27;20479;-61
2023/07/01 08:45:44;;;;;;;15.40;6.60;;;18.90;92.40;;;;;;5117248;27;20480;-60
2023/07/01 08:48:11;;;;;;;30.20;9.43;;;18.90;92.60;;;;;;5114125;27;20808;-61
2023/07/01 08:50:43;;;;;;;25.97;8.30;;;18.90;92.60;;;;;;5092758;27;20490;-61
2023/07/01 08:53:12;;;;;;;15.67;5.83;;;18.90;92.60;;;;;;5115827;27;20563;-60
2023/07/01 08:55:41;;;;;;;18.80;6.40;;;19.00;92.80;;;;;;5116745;27;20479;-61
2023/07/01 08:58:08;;;;;;;29.70;9.30;;;19.00;92.80;;;;;;5114826;27;20479;-61
2023/07/01 09:00:35;;;;;;;24.30;7.50;;;19.10;93.00;;;;;;5116426;27;20872;-60
2023/07/01 09:03:03;;;;;;;46.40;10.93;;;19.10;92.80;;;;;;5116162;27;20473;-60
2023/07/01 09:05:30;;;;;;;23.43;7.97;;;19.20;93.20;;;;;;5116725;27;20859;-60
2023/07/01 09:07:57;;;;;;;49.77;13.73;;;19.20;93.20;;;;;;5096564;27;20472;-60
2023/07/01 09:10:24;;;;;;;32.37;8.73;;;19.10;92.70;;;;;;5115824;27;20856;-60
2023/07/01 09:12:52;;;;;;;28.77;8.87;;;19.00;92.70;;;;;;5114913;27;20600;-60
2023/07/01 09:15:19;;;;;;;25.03;8.53;;;19.10;92.90;;;;;;5116351;27;21029;-61
2023/07/01 09:17:46;;;;;;;25.37;7.27;;;19.10;92.70;;;;;;5116587;27;20474;-60
2023/07/01 09:20:14;;;;;;;29.67;9.47;;;19.30;93.20;;;;;;5115931;27;21018;-60
2023/07/01 09:22:43;;;;;;;16.73;6.23;;;19.30;92.70;;;;;;5115544;27;20988;-60
2023/07/01 09:25:10;;;;;;;29.37;9.80;;;19.60;93.50;;;;;;5114848;27;20475;-60
2023/07/01 09:27:41;;;;;;;25.77;8.33;;;19.60;92.70;;;;;;5115344;27;20476;-60
2023/07/01 09:30:24;;;;;;;27.90;8.93;;;19.50;92.50;;;;;;5115334;27;20946;-61
2023/07/01 09:32:50;;;;;;;23.87;8.00;;;19.70;92.80;;;;;;5103544;27;20486;-60
2023/07/01 09:35:17;;;;;;;25.83;8.50;;;19.50;92.60;;;;;;5116363;27;20483;-60
2023/07/01 09:37:44;;;;;;;26.03;7.97;;;19.50;92.50;;;;;;5113571;27;20997;-60
2023/07/01 09:40:20;;;;;;;28.10;9.67;;;19.60;92.80;;;;;;5114006;27;20486;-61
2023/07/01 09:42:51;;;;;;;17.17;7.10;;;19.50;92.40;;;;;;5101827;27;20472;-60
2023/07/01 09:45:19;;;;;;;22.87;7.90;;;19.60;92.70;;;;;;5094411;27;20477;-60
2023/07/01 09:47:51;;;;;;;22.97;7.70;;;19.60;92.40;;;;;;5097988;27;20489;-61
2023/07/01 09:50:24;;;;;;;25.67;8.97;;;19.60;92.60;;;;;;5077525;27;20565;-60
2023/07/01 09:52:53;;;;;;;23.73;8.50;;;19.60;92.80;;;;;;5085780;27;20477;-60
2023/07/01 09:55:20;;;;;;;33.13;10.70;;;19.70;93.30;;;;;;5083549;27;20485;-60
2023/07/01 09:57:47;;;;;;;19.37;6.90;;;19.80;92.70;;;;;;5091849;27;20885;-60
2023/07/01 10:00:16;;;;;;;25.57;8.93;;;20.00;93.00;;;;;;5090204;27;20479;-60
2023/07/01 10:02:45;;;;;;;22.07;7.97;;;20.20;92.70;;;;;;5094129;27;20478;-60
2023/07/01 10:05:13;;;;;;;20.40;6.47;;;20.20;92.20;;;;;;5095203;27;20469;-61
2023/07/01 10:07:40;;;;;;;17.17;6.37;;;20.20;92.70;;;;;;5093073;27;20480;-61
2023/07/01 10:10:12;;;;;;;32.43;8.83;;;20.20;92.80;;;;;;5091094;27;20485;-60
2023/07/01 10:12:41;;;;;;;14.10;5.30;;;20.30;93.00;;;;;;5083347;28;20484;-60
2023/07/01 10:15:10;;;;;;;31.83;10.30;;;20.40;92.80;;;;;;5084302;28;20838;-60
2023/07/01 10:17:48;;;;;;;22.23;7.30;;;20.30;92.20;;;;;;5094625;27;20473;-62
2023/07/01 10:20:26;;;;;;;26.80;9.00;;;20.10;92.30;;;;;;5082395;28;20481;-60
2023/07/01 10:22:54;;;;;;;40.00;11.07;;;20.40;92.80;;;;;;5082499;28;20487;-61
2023/07/01 10:25:30;;;;;;;20.53;6.87;;;20.30;93.00;;;;;;5085801;27;20532;-61
2023/07/01 10:28:14;;;;;;;42.67;12.87;;;20.40;93.20;;;;;;5108544;27;20472;-62
2023/07/01 10:31:10;;;;;;;21.70;8.00;;;20.30;92.50;;;;;;5115166;27;20672;-62
2023/07/01 10:33:57;;;;;;;20.63;8.00;;;20.20;92.60;;;;;;5114409;27;20468;-62
2023/07/01 10:36:25;;;;;;;30.77;7.90;;;20.50;93.20;;;;;;5102625;27;20567;-60
2023/07/01 10:38:52;;;;;;;31.00;9.67;;;20.50;92.70;;;;;;5114054;27;20473;-60
2023/07/01 10:41:51;;;;;;;30.30;9.67;;;20.40;92.50;;;;;;5113850;27;20467;-62
2023/07/01 10:44:25;;;;;;;23.13;6.97;;;20.60;92.90;;;;;;5050113;28;21236;-61
2023/07/01 10:47:17;;;;;;;42.17;10.70;;;20.30;92.80;;;;;;5072383;28;20556;-60
2023/07/01 10:50:06;;;;;;;12.83;4.97;;;20.40;93.40;;;;;;5114865;28;20468;-60
2023/07/01 10:52:33;;;;;;;29.33;8.80;;;20.20;93.00;;;;;;5103166;27;20846;-61
2023/07/01 10:55:02;;;;;;;44.53;11.87;;;20.40;93.50;;;;;;5113113;27;20482;-61
2023/07/01 10:57:30;;;;;;;23.23;7.10;;;20.40;93.00;;;;;;5114475;27;20468;-61
2023/07/01 11:00:30;;;;;;;38.00;11.07;;;20.40;93.00;;;;;;5111931;27;20480;-61
2023/07/01 11:02:57;;;;;;;42.53;11.57;;;20.70;93.10;;;;;;5102377;27;20503;-61
2023/07/01 11:05:28;;;;;;;31.30;10.47;;;20.80;93.60;;;;;;5113690;27;20479;-61
2023/07/01 11:08:06;;;;;;;38.73;10.50;;;21.00;92.90;;;;;;5115115;28;20990;-61
2023/07/01 11:10:34;;;;;;;31.90;9.60;;;21.00;93.00;;;;;;5078537;27;20500;-61
2023/07/01 11:13:02;;;;;;;45.00;12.33;;;21.30;92.60;;;;;;5108177;27;20487;-61
2023/07/01 11:15:28;;;;;;;20.67;7.17;;;21.30;92.70;;;;;;5116634;27;20529;-61
2023/07/01 11:17:57;;;;;;;45.77;12.67;;;21.30;92.50;;;;;;5116757;27;20468;-61
2023/07/01 11:20:25;;;;;;;35.77;9.37;;;21.40;92.10;;;;;;5090039;27;20834;-61
2023/07/01 11:22:52;;;;;;;34.40;10.00;;;21.40;92.40;;;;;;5118345;27;20461;-60
2023/07/01 11:25:19;;;;;;;20.13;6.83;;;21.50;92.40;;;;;;5116999;27;20637;-61
2023/07/01 11:27:46;;;;;;;18.10;5.97;;;21.30;91.80;;;;;;5116630;27;20472;-61
2023/07/01 11:30:28;;;;;;;21.80;6.70;;;21.20;92.00;;;;;;5114403;27;20479;-61
2023/07/01 11:32:55;;;;;;;59.07;14.50;;;21.00;92.10;;;;;;5089615;27;20466;-62
2023/07/01 11:35:22;;;;;;;23.60;6.43;;;21.10;92.50;;;;;;5118954;27;20478;-61
2023/07/01 11:37:50;;;;;;;24.10;7.17;;;21.10;92.50;;;;;;5117217;27;20498;-60
2023/07/01 11:40:17;;;;;;;21.93;7.07;;;21.20;92.50;;;;;;5116446;27;21603;-61
2023/07/01 11:42:44;;;;;;;21.47;6.63;;;21.40;92.10;;;;;;5117745;27;20479;-62
2023/07/01 11:45:11;;;;;;;29.73;7.97;;;21.00;92.00;;;;;;5100663;27;20478;-60
2023/07/01 11:47:46;;;;;;;20.03;6.80;;;21.10;92.30;;;;;;5104923;27;20481;-61
2023/07/01 11:50:13;;;;;;;22.57;7.47;;;21.30;92.80;;;;;;5117758;27;21491;-60
2023/07/01 11:52:40;;;;;;;20.50;6.93;;;21.30;93.20;;;;;;5119565;27;21016;-60
2023/07/01 11:55:08;;;;;;;33.97;8.50;;;21.20;92.30;;;;;;5117394;27;20473;-60
2023/07/01 11:57:35;;;;;;;15.93;5.73;;;21.20;92.30;;;;;;5116909;27;20942;-60
2023/07/01 12:00:03;;;;;;;37.00;11.53;;;21.30;92.30;;;;;;5095968;27;20478;-61
2023/07/01 12:02:31;;;;;;;56.83;14.57;;;21.20;92.60;;;;;;5105399;27;20560;-60
2023/07/01 12:04:58;;;;;;;50.13;14.43;;;21.20;92.30;;;;;;5106616;27;20479;-60
2023/07/01 12:07:25;;;;;;;19.20;6.60;;;21.20;92.50;;;;;;5090907;27;20476;-60
2023/07/01 12:09:52;;;;;;;21.23;7.70;;;21.10;92.50;;;;;;5124058;27;20464;-60
2023/07/01 12:12:38;;;;;;;36.30;11.70;;;21.10;92.80;;;;;;5124714;27;20485;-61
2023/07/01 12:15:07;;;;;;;42.17;12.10;;;20.90;92.70;;;;;;5111130;27;20956;-61
2023/07/01 12:17:34;;;;;;;23.40;7.73;;;21.00;93.00;;;;;;5125003;27;20702;-61
2023/07/01 12:20:03;;;;;;;44.93;12.20;;;21.00;93.00;;;;;;5125710;27;20471;-61
2023/07/01 12:22:30;;;;;;;29.37;6.50;;;20.90;93.30;;;;;;5122106;27;20478;-60
2023/07/01 12:24:59;;;;;;;50.83;14.60;;;21.00;93.50;;;;;;5125462;27;21021;-61
2023/07/01 12:27:26;;;;;;;24.07;7.70;;;21.00;93.40;;;;;;5125703;27;20465;-60
2023/07/01 12:29:54;;;;;;;28.23;9.60;;;20.90;93.60;;;;;;5128586;27;20528;-59
2023/07/01 12:32:21;;;;;;;30.23;9.37;;;20.90;93.50;;;;;;5122104;27;20483;-60
2023/07/01 12:34:48;;;;;;;21.03;7.47;;;20.70;93.80;;;;;;5120944;27;20612;-60
2023/07/01 12:37:15;;;;;;;22.83;7.30;;;20.90;94.50;;;;;;5124765;27;20468;-61
2023/07/01 12:39:44;;;;;;;17.50;6.70;;;21.00;94.20;;;;;;5125453;27;20479;-61
2023/07/01 12:42:11;;;;;;;26.83;9.40;;;20.80;94.00;;;;;;5119726;27;20541;-60
2023/07/01 12:44:39;;;;;;;20.93;6.63;;;22.90;95.60;;;;;;5123934;27;20876;-61
2023/07/01 12:47:08;;;;;;;30.80;9.37;;;20.70;94.70;;;;;;5121830;27;20570;-60
2023/07/01 12:49:37;;;;;;;33.47;10.30;;;20.90;95.40;;;;;;5120657;27;20808;-60
2023/07/01 12:52:04;;;;;;;42.47;10.83;;;20.80;96.00;;;;;;5123240;27;20829;-60
2023/07/01 12:54:32;;;;;;;25.87;7.87;;;20.70;96.10;;;;;;5125006;27;20487;-60
2023/07/01 12:56:59;;;;;;;47.00;12.57;;;20.70;96.40;;;;;;5122117;27;20482;-60
2023/07/01 12:59:26;;;;;;;24.33;7.47;;;20.70;95.80;;;;;;5124764;27;20948;-63
2023/07/01 13:01:52;;;;;;;34.23;10.80;;;20.70;95.90;;;;;;5120427;27;20476;-62